Time;durP1;ratioP1;P1;durP2;ratioP2;P2;SDS_P1;SDS_P2;PMS_P1;PMS_P2;Temp;Humidity;BMP_temperature;BMP_pressure;BME280_temperature;BME280_humidity;BME280_pressure;Samples;Min_cycle;Max_cycle;Signal;HPM_P1;HPM_P2
2022/08/14 00:01:21;;;;;;;13.63;7.13;;;;;;;24.29;61.41;100806.47;5038480;28;20054;-80
2022/08/14 00:03:49;;;;;;;14.40;7.00;;;;;;;24.24;62.60;100805.13;5040282;28;20048;-79
2022/08/14 00:06:18;;;;;;;12.80;6.38;;;;;;;24.23;62.64;100805.63;5035024;28;20047;-80
2022/08/14 00:08:55;;;;;;;13.77;6.70;;;;;;;24.17;63.12;100801.91;5037956;28;20127;-79
2022/08/14 00:11:26;;;;;;;14.10;7.20;;;;;;;24.10;63.51;100799.50;5033385;28;20915;-79
2022/08/14 00:13:58;;;;;;;14.75;6.55;;;;;;;24.04;63.39;100795.78;5042571;28;20768;-79
2022/08/14 00:16:27;;;;;;;14.35;7.75;;;;;;;23.97;64.37;100790.53;5040469;28;20048;-79
2022/08/14 00:19:11;;;;;;;18.35;7.13;;;;;;;23.96;65.51;100795.38;5037787;28;20049;-80
2022/08/14 00:21:50;;;;;;;15.18;7.72;;;;;;;23.89;65.98;100792.91;5044767;28;20812;-80
2022/08/14 00:24:19;;;;;;;13.63;6.85;;;;;;;23.87;65.46;100786.19;5037433;28;20277;-80
2022/08/14 00:26:54;;;;;;;12.30;6.85;;;;;;;23.82;66.36;100782.00;5042377;28;20056;-80
2022/08/14 00:29:21;;;;;;;14.60;7.45;;;;;;;23.77;66.88;100776.25;5035334;28;20890;-79
2022/08/14 00:31:51;;;;;;;15.45;6.70;;;;;;;23.72;65.63;100779.78;5041549;28;20135;-78
2022/08/14 00:34:22;;;;;;;12.05;7.35;;;;;;;23.65;67.10;100780.91;5037454;28;20041;-80
2022/08/14 00:37:04;;;;;;;14.65;7.22;;;;;;;23.61;67.14;100776.72;5036622;28;20113;-78
2022/08/14 00:39:31;;;;;;;14.88;7.18;;;;;;;23.56;67.67;100778.19;5039932;28;20044;-79
2022/08/14 00:41:58;;;;;;;13.93;7.32;;;;;;;23.53;67.21;100784.81;5039332;28;20048;-80
2022/08/14 00:44:27;;;;;;;15.07;7.13;;;;;;;23.45;68.67;100789.25;5036035;28;20083;-80
2022/08/14 00:47:00;;;;;;;14.48;7.68;;;;;;;23.42;68.60;100778.94;5038285;28;20063;-79
2022/08/14 00:49:31;;;;;;;14.18;7.35;;;;;;;23.38;69.36;100781.16;5043649;28;20060;-79
2022/08/14 00:52:08;;;;;;;16.77;8.50;;;;;;;23.32;69.29;100777.44;5042710;28;20055;-81
2022/08/14 00:54:41;;;;;;;14.20;7.43;;;;;;;23.30;69.34;100771.53;5040211;28;20044;-79
2022/08/14 00:57:08;;;;;;;15.20;8.00;;;;;;;23.26;70.54;100770.13;5046507;28;20048;-80
2022/08/14 00:59:35;;;;;;;12.57;7.22;;;;;;;23.24;70.18;100764.97;5049338;28;20055;-80
2022/08/14 01:02:04;;;;;;;15.00;7.57;;;;;;;23.21;70.86;100767.97;5041034;28;20503;-80
2022/08/14 01:04:35;;;;;;;18.13;7.72;;;;;;;23.18;71.36;100764.03;5036842;28;20052;-78
2022/08/14 01:07:21;;;;;;;14.27;7.70;;;;;;;23.14;70.83;100766.28;5035518;28;20052;-79
2022/08/14 01:09:50;;;;;;;14.55;7.88;;;;;;;23.10;71.64;100762.88;5039751;28;20309;-79
2022/08/14 01:12:17;;;;;;;13.80;7.88;;;;;;;23.04;70.50;100761.97;5039878;28;20059;-79
2022/08/14 01:14:57;;;;;;;13.55;8.32;;;;;;;23.00;71.48;100750.09;5040917;28;20079;-79
2022/08/14 01:21:02;;;;;;;18.27;8.82;;;;;;;22.93;71.93;100741.97;5043664;28;20523;-78
2022/08/14 01:23:09;;;;;;;17.48;8.57;;;;;;;22.85;72.07;100740.78;5041992;28;20048;-79
2022/08/14 01:25:42;;;;;;;15.43;8.43;;;;;;;22.82;73.05;100747.41;5041347;28;20059;-79
2022/08/14 01:28:11;;;;;;;14.77;8.30;;;;;;;22.78;73.98;100735.53;5038895;28;20167;-77
2022/08/14 01:30:58;;;;;;;14.85;8.23;;;;;;;22.77;72.94;100733.94;5039096;28;20585;-77
2022/08/14 01:33:29;;;;;;;16.10;8.73;;;;;;;22.69;73.92;100729.94;5036235;28;20052;-78
2022/08/14 01:36:19;;;;;;;17.02;8.73;;;;;;;22.64;73.76;100728.53;5045343;28;20121;-79
2022/08/14 01:38:50;;;;;;;17.08;9.30;;;;;;;22.64;74.70;100727.75;5042042;28;20093;-78
2022/08/14 01:41:19;;;;;;;16.92;8.23;;;;;;;22.64;74.01;100720.09;5041032;28;20840;-78
2022/08/14 01:44:00;;;;;;;15.50;8.27;;;;;;;22.59;75.84;100723.56;5040007;28;20854;-79
2022/08/14 01:46:32;;;;;;;15.85;9.27;;;;;;;22.55;75.34;100710.91;5044146;28;20052;-79
2022/08/14 01:49:06;;;;;;;15.23;8.80;;;;;;;22.59;75.29;100722.78;5049098;28;20052;-77
2022/08/14 01:51:34;;;;;;;15.40;8.70;;;;;;;22.55;74.00;100719.38;5057869;28;20049;-78
2022/08/14 01:54:23;;;;;;;17.85;8.65;;;;;;;22.47;77.19;100713.25;5063921;28;20048;-77
2022/08/14 01:57:05;;;;;;;15.73;9.10;;;;;;;22.42;76.07;100699.06;5055857;28;20056;-77
2022/08/14 01:59:33;;;;;;;19.50;9.27;;;;;;;22.45;76.52;100696.03;5062005;28;20082;-78
2022/08/14 02:02:11;;;;;;;18.73;9.93;;;;;;;22.43;76.74;100703.41;5058187;28;20076;-78
2022/08/14 02:04:46;;;;;;;17.25;9.75;;;;;;;22.36;77.13;100693.28;5064773;28;20091;-76
2022/08/14 02:07:23;;;;;;;15.32;9.02;;;;;;;22.35;77.61;100693.75;5056870;28;20056;-77
2022/08/14 02:10:11;;;;;;;15.43;9.02;;;;;;;22.36;77.69;100693.28;5064978;28;20390;-77
2022/08/14 02:12:45;;;;;;;15.90;8.60;;;;;;;22.33;77.28;100682.19;5067043;28;20064;-76
2022/08/14 02:15:20;;;;;;;16.67;9.57;;;;;;;22.33;76.94;100685.00;5062005;28;20052;-76
2022/08/14 02:17:48;;;;;;;20.73;9.93;;;;;;;22.30;77.12;100677.50;5061603;28;20056;-76
2022/08/14 02:20:16;;;;;;;15.18;9.43;;;;;;;22.26;77.83;100677.69;5073164;28;20412;-77
2022/08/14 02:22:50;;;;;;;19.25;9.70;;;;;;;22.21;78.58;100669.09;5058122;28;20053;-77
2022/08/14 02:25:19;;;;;;;16.80;9.68;;;;;;;22.15;78.16;100668.97;5060595;28;20060;-76
2022/08/14 02:27:48;;;;;;;18.67;10.32;;;;;;;22.12;79.91;100667.13;5068187;28;20079;-76
2022/08/14 02:30:34;;;;;;;17.50;9.23;;;;;;;22.07;79.19;100656.47;5063566;28;20052;-77
2022/08/14 02:33:05;;;;;;;21.33;10.15;;;;;;;22.06;80.00;100654.94;5067838;28;20048;-78
2022/08/14 02:35:32;;;;;;;18.02;9.77;;;;;;;21.98;79.57;100662.19;5064562;28;20539;-77
2022/08/14 02:38:06;;;;;;;17.63;10.60;;;;;;;21.99;80.86;100663.72;5056832;28;20473;-76
2022/08/14 02:40:53;;;;;;;18.15;9.30;;;;;;;21.98;80.68;100662.19;5064406;28;20048;-75
2022/08/14 02:43:20;;;;;;;17.98;9.75;;;;;;;21.95;81.52;100663.13;5067443;28;20044;-77
2022/08/14 02:45:48;;;;;;;17.00;9.38;;;;;;;21.95;80.27;100654.69;5063166;28;20744;-76
2022/08/14 02:48:16;;;;;;;17.15;9.68;;;;;;;21.97;80.90;100663.41;5064082;28;20040;-76
2022/08/14 02:51:06;;;;;;;17.15;9.38;;;;;;;21.95;80.64;100659.53;5066777;28;20068;-74
2022/08/14 02:53:35;;;;;;;19.20;10.25;;;;;;;21.93;81.20;100656.38;5067896;28;20109;-77
2022/08/14 02:56:03;;;;;;;18.13;10.27;;;;;;;21.93;81.60;100656.38;5066781;28;20566;-79
2022/08/14 02:58:50;;;;;;;22.50;10.18;;;;;;;21.92;81.61;100657.66;5064739;28;20055;-77
2022/08/14 03:01:22;;;;;;;17.55;9.52;;;;;;;21.90;82.01;100657.38;5062117;28;20044;-77
2022/08/14 03:03:52;;;;;;;18.25;10.43;;;;;;;21.86;81.86;100653.91;5060716;28;20118;-77
2022/08/14 03:06:23;;;;;;;20.92;10.15;;;;;;;21.85;82.49;100655.97;5065860;28;20044;-77
2022/08/14 03:09:10;;;;;;;21.48;10.50;;;;;;;21.84;81.98;100648.75;5063380;28;20048;-78
2022/08/14 03:11:38;;;;;;;18.98;11.05;;;;;;;21.82;82.24;100653.31;5058495;28;20050;-78
2022/08/14 03:14:11;;;;;;;18.80;10.45;;;;;;;21.80;82.85;100653.03;5061709;28;20044;-77
2022/08/14 03:16:44;;;;;;;17.35;10.20;;;;;;;21.73;82.72;100656.19;5063405;28;20048;-77
2022/08/14 03:19:14;;;;;;;17.50;10.75;;;;;;;21.68;82.77;100651.94;5065725;28;20055;-79
2022/08/14 03:21:45;;;;;;;17.67;10.43;;;;;;;21.69;83.51;100653.50;5063168;28;20054;-78
2022/08/14 03:24:21;;;;;;;17.67;10.80;;;;;;;21.65;83.75;100658.53;5061635;28;20053;-77
2022/08/14 03:26:50;;;;;;;21.20;11.30;;;;;;;21.67;83.90;100658.03;5066443;28;20106;-77
2022/08/14 03:29:23;;;;;;;18.38;9.98;;;;;;;21.63;83.92;100646.94;5055551;28;20147;-78
2022/08/14 03:31:52;;;;;;;20.13;11.77;;;;;;;21.62;84.63;100650.22;5064874;28;20167;-76
2022/08/14 03:34:21;;;;;;;18.92;11.13;;;;;;;21.60;85.05;100647.13;5062346;28;20083;-77
2022/08/14 03:37:03;;;;;;;19.17;10.93;;;;;;;21.56;83.78;100640.88;5056472;28;20421;-78
2022/08/14 03:39:51;;;;;;;20.92;11.90;;;;;;;21.54;85.62;100635.72;5054418;28;20531;-75
2022/08/14 03:42:18;;;;;;;18.02;10.98;;;;;;;21.50;85.07;100634.31;5058437;28;20665;-77
2022/08/14 03:44:47;;;;;;;18.52;11.07;;;;;;;21.43;86.24;100640.28;5061257;28;20056;-77
2022/08/14 03:47:39;;;;;;;18.05;11.18;;;;;;;21.39;87.26;100639.69;5060750;28;20052;-79
2022/08/14 03:50:21;;;;;;;21.95;10.52;;;;;;;21.35;86.82;100639.03;5066097;28;20044;-77
2022/08/14 03:53:01;;;;;;;19.70;11.80;;;;;;;21.33;87.30;100644.38;5065224;28;20048;-77
2022/08/14 03:55:28;;;;;;;19.20;11.20;;;;;;;21.31;88.23;100638.44;5060123;28;20063;-77
2022/08/14 03:57:56;;;;;;;18.35;10.35;;;;;;;21.28;87.38;100642.97;5062670;28;20548;-79
2022/08/14 04:00:23;;;;;;;20.55;12.05;;;;;;;21.23;87.82;100645.66;5066014;28;20143;-78
2022/08/14 04:03:10;;;;;;;22.55;11.68;;;;;;;21.20;88.94;100647.38;5058341;28;20040;-76
2022/08/14 04:05:41;;;;;;;22.13;11.60;;;;;;;21.19;88.65;100642.97;5065170;28;20058;-76
2022/08/14 04:08:15;;;;;;;19.65;11.93;;;;;;;21.19;88.47;100642.22;5057475;28;20181;-77
2022/08/14 04:10:58;;;;;;;21.83;12.27;;;;;;;21.20;89.58;100643.78;5064094;28;20059;-77
2022/08/14 04:13:27;;;;;;;22.63;12.55;;;;;;;21.21;89.83;100650.94;5063078;28;20058;-78
2022/08/14 04:16:04;;;;;;;21.73;12.57;;;;;;;21.19;89.58;100642.97;5059859;28;20056;-76
2022/08/14 04:18:42;;;;;;;19.98;12.18;;;;;;;21.17;89.81;100647.53;5063172;28;20094;-77
2022/08/14 04:21:10;;;;;;;23.42;11.88;;;;;;;21.14;89.89;100649.25;5058204;28;20139;-75
2022/08/14 04:23:37;;;;;;;23.27;12.57;;;;;;;21.12;90.23;100640.50;5063283;28;20075;-75
2022/08/14 04:26:08;;;;;;;19.30;11.98;;;;;;;21.10;90.03;100642.22;5055663;28;20084;-76
2022/08/14 04:28:42;;;;;;;23.05;12.43;;;;;;;21.07;90.34;100641.13;5057857;28;20131;-75
2022/08/14 04:31:28;;;;;;;20.20;12.05;;;;;;;21.03;90.73;100636.91;5056951;28;20654;-77
2022/08/14 04:34:16;;;;;;;20.50;12.38;;;;;;;21.01;90.92;100634.56;5056992;28;20075;-76
2022/08/14 04:45:19;;;;;;;22.15;13.00;;;;;;;20.95;93.29;100630.81;5060047;28;20704;-76
2022/08/14 04:50:31;;;;;;;21.05;11.93;;;;;;;20.92;93.48;100637.34;5061667;28;20044;-76
2022/08/14 04:53:17;;;;;;;21.80;12.60;;;;;;;20.94;93.70;100637.72;5061718;28;20106;-78
2022/08/14 04:55:49;;;;;;;25.00;12.77;;;;;;;20.94;94.05;100640.53;5061937;28;20048;-77
2022/08/14 04:58:23;;;;;;;18.85;12.43;;;;;;;20.93;94.58;100636.16;5065724;28;20048;-77
2022/08/14 05:01:00;;;;;;;23.45;12.75;;;;;;;20.96;93.55;100638.00;5064580;28;20160;-76
2022/08/14 05:03:29;;;;;;;23.45;12.75;;;;;;;20.97;94.68;100635.97;5055650;28;20052;-75
2022/08/14 05:05:59;;;;;;;25.33;14.68;;;;;;;20.96;94.66;100631.63;5054193;28;20045;-77
2022/08/14 05:08:25;;;;;;;20.20;12.32;;;;;;;20.90;94.48;100619.41;5060393;28;20063;-76
2022/08/14 05:11:12;;;;;;;19.52;12.70;;;;;;;20.95;94.97;100633.63;5063116;28;20507;-75
2022/08/14 05:13:39;;;;;;;20.38;12.38;;;;;;;20.94;95.57;100631.28;5066136;28;20090;-74
2022/08/14 05:16:30;;;;;;;21.25;13.38;;;;;;;20.95;96.12;100625.19;5058864;28;20059;-74
2022/08/14 05:18:57;;;;;;;22.48;13.48;;;;;;;21.03;95.36;100631.28;5061063;28;20048;-73
2022/08/14 05:21:43;;;;;;;22.90;14.05;;;;;;;21.03;95.09;100625.66;5063986;28;20044;-77
2022/08/14 05:24:24;;;;;;;21.35;14.27;;;;;;;21.07;95.32;100626.28;5059413;28;20049;-75
2022/08/14 05:26:51;;;;;;;24.08;14.07;;;;;;;21.10;95.08;100622.53;5065031;28;20492;-74
2022/08/14 05:29:18;;;;;;;21.50;14.15;;;;;;;21.12;95.23;100611.59;5067278;28;20743;-75
2022/08/14 05:31:46;;;;;;;23.52;14.30;;;;;;;21.20;95.73;100619.25;5052810;28;20497;-75
2022/08/14 05:34:12;;;;;;;23.35;14.80;;;;;;;21.29;95.49;100624.84;5057818;28;20068;-77
2022/08/14 05:36:41;;;;;;;26.10;16.25;;;;;;;21.36;94.89;100627.31;5066640;28;20055;-75
2022/08/14 05:39:08;;;;;;;24.23;15.70;;;;;;;21.48;94.13;100622.75;5067527;28;20484;-72
2022/08/14 05:41:35;;;;;;;25.50;15.60;;;;;;;21.61;93.33;100620.53;5063812;28;20048;-75
2022/08/14 05:44:19;;;;;;;23.00;16.27;;;;;;;21.74;93.01;100615.50;5064339;28;20044;-75
2022/08/14 05:46:45;;;;;;;23.63;16.02;;;;;;;21.84;92.82;100614.97;5063432;28;20052;-75
2022/08/14 05:49:13;;;;;;;22.65;15.00;;;;;;;21.91;92.88;100613.84;5070887;28;20135;-79
2022/08/14 05:51:40;;;;;;;23.50;15.13;;;;;;;22.01;93.07;100615.38;5066436;28;20460;-78
2022/08/14 05:54:07;;;;;;;21.17;14.05;;;;;;;22.10;92.58;100610.44;5069153;28;20052;-77
2022/08/14 05:56:39;;;;;;;24.13;15.13;;;;;;;22.19;91.94;100603.97;5066774;28;20049;-76
2022/08/14 05:59:05;;;;;;;24.65;14.90;;;;;;;22.28;91.12;100618.03;5067793;28;20044;-77
2022/08/14 06:01:33;;;;;;;24.33;14.85;;;;;;;22.34;91.10;100605.59;5055681;28;20049;-79
2022/08/14 06:04:00;;;;;;;22.13;14.60;;;;;;;22.55;90.32;100615.03;5071884;28;20040;-76
2022/08/14 06:06:30;;;;;;;22.52;14.68;;;;;;;22.64;89.42;100603.66;5063150;28;20075;-77
2022/08/14 06:09:03;;;;;;;23.20;14.93;;;;;;;22.69;88.96;100611.47;5069472;28;20060;-79
2022/08/14 06:11:30;;;;;;;23.73;15.95;;;;;;;22.72;88.49;100607.69;5059015;28;20047;-77
2022/08/14 06:13:58;;;;;;;22.70;14.05;;;;;;;22.77;89.09;100604.97;5071254;28;20052;-77
2022/08/14 06:16:25;;;;;;;26.05;15.80;;;;;;;22.84;88.43;100603.81;5068438;28;20067;-75
2022/08/14 06:18:51;;;;;;;23.00;15.18;;;;;;;22.88;87.72;100604.38;5073401;28;20135;-78
2022/08/14 06:21:20;;;;;;;24.42;15.82;;;;;;;22.96;87.40;100619.69;5070928;28;20040;-76
2022/08/14 06:23:48;;;;;;;22.38;15.00;;;;;;;23.00;87.18;100600.53;5069461;28;20131;-76
2022/08/14 06:26:15;;;;;;;23.55;15.23;;;;;;;23.12;86.97;100601.50;5067411;28;20049;-76
2022/08/14 06:28:46;;;;;;;20.88;13.30;;;;;;;23.22;86.67;100600.94;5067859;28;20468;-76
2022/08/14 06:31:17;;;;;;;21.33;13.73;;;;;;;23.25;86.20;100602.81;5055966;28;20045;-76
2022/08/14 06:33:45;;;;;;;28.60;16.05;;;;;;;23.30;85.81;100607.78;5070386;28;20078;-76
2022/08/14 06:36:32;;;;;;;25.25;15.30;;;;;;;23.37;85.70;100604.56;5057506;28;20067;-77
2022/08/14 06:38:59;;;;;;;23.77;13.80;;;;;;;23.47;85.46;100610.88;5066986;28;20402;-77
2022/08/14 06:41:25;;;;;;;26.98;15.38;;;;;;;23.54;85.05;100605.63;5068676;28;20413;-78
2022/08/14 06:44:11;;;;;;;22.90;15.45;;;;;;;23.65;84.92;100608.63;5065713;28;20067;-73
2022/08/14 06:46:38;;;;;;;22.83;14.75;;;;;;;23.75;85.16;100593.09;5067760;28;20060;-78
2022/08/14 06:49:05;;;;;;;21.85;14.63;;;;;;;23.85;84.31;100599.41;5066878;28;20091;-78
2022/08/14 06:51:32;;;;;;;22.60;15.35;;;;;;;23.95;83.49;100601.66;5065850;28;20049;-76
2022/08/14 06:54:10;;;;;;;22.67;15.45;;;;;;;24.06;83.42;100601.81;5066552;28;20153;-76
2022/08/14 06:56:37;;;;;;;24.02;14.73;;;;;;;24.14;82.57;100602.19;5069016;28;20086;-77
2022/08/14 06:59:04;;;;;;;21.88;14.77;;;;;;;24.22;82.31;100600.50;5069386;28;20056;-77
2022/08/14 07:07:07;;;;;;;23.95;15.00;;;;;;;24.49;80.86;100595.19;5061670;28;20048;-78
2022/08/14 07:09:34;;;;;;;23.33;13.70;;;;;;;24.60;80.48;100595.31;5058063;28;20132;-77
2022/08/14 07:12:16;;;;;;;22.02;13.85;;;;;;;24.71;79.74;100600.38;5071726;28;20043;-78
2022/08/14 07:15:04;;;;;;;20.13;13.10;;;;;;;24.81;78.98;100593.28;5071569;28;20048;-76
2022/08/14 07:17:31;;;;;;;22.42;13.70;;;;;;;24.92;78.78;100582.88;5070687;28;20500;-75
2022/08/14 07:20:03;;;;;;;19.70;13.30;;;;;;;25.04;78.40;100593.00;5068159;28;20052;-77
2022/08/14 07:22:29;;;;;;;20.20;12.30;;;;;;;25.15;77.66;100587.44;5068212;28;20563;-77
2022/08/14 07:25:15;;;;;;;17.00;10.40;;;;;;;25.27;77.26;100593.25;5065633;28;20044;-76
2022/08/14 07:27:42;;;;;;;19.75;11.80;;;;;;;25.38;76.59;100585.66;5068529;28;20049;-79
2022/08/14 07:30:09;;;;;;;19.80;11.90;;;;;;;25.47;75.78;100581.84;5065158;28;20048;-75
2022/08/14 07:32:56;;;;;;;18.15;10.95;;;;;;;25.63;75.16;100579.13;5063492;28;20068;-76
2022/08/14 07:35:22;;;;;;;17.80;11.25;;;;;;;25.76;74.42;100576.66;5061487;28;20610;-77
2022/08/14 07:37:49;;;;;;;19.77;11.55;;;;;;;25.86;73.55;100571.56;5063735;28;20040;-77
2022/08/14 07:40:18;;;;;;;19.10;11.73;;;;;;;25.93;73.07;100576.75;5063905;28;20048;-76
2022/08/14 07:42:55;;;;;;;17.48;11.20;;;;;;;26.03;72.53;100578.16;5064519;28;20041;-76
2022/08/14 07:45:22;;;;;;;24.15;10.85;;;;;;;26.10;71.96;100575.63;5065511;28;20051;-76
2022/08/14 07:47:48;;;;;;;17.85;11.15;;;;;;;26.13;70.60;100576.66;5063766;28;20047;-76
2022/08/14 07:50:18;;;;;;;17.83;11.82;;;;;;;26.18;70.24;100573.84;5062567;28;20049;-76
2022/08/14 07:52:48;;;;;;;17.00;10.63;;;;;;;26.26;69.84;100562.81;5062870;28;20036;-71
2022/08/14 07:55:16;;;;;;;17.25;10.48;;;;;;;26.37;69.48;100574.19;5059852;28;20139;-70
2022/08/14 07:57:47;;;;;;;21.02;10.43;;;;;;;26.42;69.21;100570.63;5065661;28;20402;-74
2022/08/14 08:00:22;;;;;;;16.35;10.57;;;;;;;26.43;68.74;100564.44;5060537;28;20045;-74
2022/08/14 08:02:59;;;;;;;17.88;10.25;;;;;;;26.51;68.19;100559.81;5064660;28;20041;-74
2022/08/14 08:05:26;;;;;;;19.38;10.63;;;;;;;26.59;68.05;100552.34;5066080;28;20048;-76
2022/08/14 08:07:53;;;;;;;16.08;9.80;;;;;;;26.67;67.99;100555.50;5064452;28;20051;-75
2022/08/14 08:10:32;;;;;;;17.65;10.13;;;;;;;26.79;67.26;100549.31;5065335;28;20048;-75
2022/08/14 08:13:20;;;;;;;15.00;9.65;;;;;;;26.90;66.36;100543.66;5065202;28;20048;-77
2022/08/14 08:15:55;;;;;;;17.30;10.55;;;;;;;26.99;65.63;100539.81;5068251;28;20582;-73
2022/08/14 08:18:23;;;;;;;16.02;9.60;;;;;;;27.08;64.66;100542.41;5073557;28;20048;-74
2022/08/14 08:20:56;;;;;;;15.75;9.60;;;;;;;27.15;64.18;100536.22;5060030;28;20052;-72
2022/08/14 08:23:28;;;;;;;15.70;8.30;;;;;;;27.22;63.34;100535.69;5065525;28;20420;-74
2022/08/14 08:26:08;;;;;;;16.83;9.10;;;;;;;27.28;62.81;100527.97;5067054;28;20080;-74
2022/08/14 08:28:35;;;;;;;15.82;9.82;;;;;;;27.33;62.84;100530.81;5065868;28;20576;-73
2022/08/14 08:31:05;;;;;;;17.83;10.02;;;;;;;27.47;62.97;100534.69;5058590;28;20044;-74
2022/08/14 08:33:35;;;;;;;16.08;9.88;;;;;;;27.55;62.25;100532.88;5062385;28;20424;-76
2022/08/14 08:36:10;;;;;;;18.25;9.68;;;;;;;27.63;61.20;100533.13;5066852;28;20052;-74
2022/08/14 08:38:45;;;;;;;15.13;9.07;;;;;;;27.69;60.61;100523.28;5061714;28;20058;-74
2022/08/14 08:41:43;;;;;;;18.27;9.63;;;;;;;27.81;60.44;100524.81;5061044;28;20052;-74
2022/08/14 08:44:11;;;;;;;17.23;9.23;;;;;;;27.97;60.17;100523.25;5066972;28;20055;-74
2022/08/14 08:46:57;;;;;;;17.98;9.75;;;;;;;28.13;59.84;100514.66;5062814;28;20048;-73
2022/08/14 08:49:34;;;;;;;16.17;8.88;;;;;;;28.27;58.49;100515.63;5067334;28;20044;-73
2022/08/14 08:52:07;;;;;;;14.65;9.43;;;;;;;28.34;57.47;100515.84;5049128;28;20041;-73
2022/08/14 08:54:54;;;;;;;17.60;10.02;;;;;;;28.36;57.12;100524.66;5058792;28;20493;-74
2022/08/14 08:57:21;;;;;;;17.50;9.90;;;;;;;28.40;57.66;100527.19;5065329;28;20497;-74
2022/08/14 08:59:49;;;;;;;16.80;9.77;;;;;;;28.53;57.47;100525.38;5066084;28;20128;-73
2022/08/14 09:02:24;;;;;;;16.23;9.05;;;;;;;28.66;57.01;100527.63;5062191;28;20095;-74
2022/08/14 09:05:01;;;;;;;15.23;9.10;;;;;;;28.70;55.80;100531.72;5067663;28;20080;-74
2022/08/14 09:07:27;;;;;;;15.15;9.18;;;;;;;28.67;55.69;100532.78;5063113;28;20467;-73
2022/08/14 09:09:56;;;;;;;16.13;9.13;;;;;;;28.80;55.95;100535.81;5066666;28;20067;-73
2022/08/14 09:12:30;;;;;;;15.38;8.82;;;;;;;28.94;55.53;100528.19;5058939;28;20048;-73
2022/08/14 09:15:08;;;;;;;17.10;9.63;;;;;;;29.07;54.75;100523.47;5060255;28;20522;-73
2022/08/14 09:17:39;;;;;;;18.20;9.95;;;;;;;29.18;54.17;100523.38;5060872;28;20119;-76
2022/08/14 09:20:08;;;;;;;15.63;8.93;;;;;;;29.29;53.35;100509.03;5067095;28;20104;-76
2022/08/14 09:22:39;;;;;;;17.27;9.27;;;;;;;29.38;52.95;100510.78;5071632;28;20135;-75
2022/08/14 09:25:16;;;;;;;14.93;8.80;;;;;;;29.48;51.46;100506.28;5064507;28;20872;-75
2022/08/14 09:28:04;;;;;;;14.05;8.82;;;;;;;29.59;51.77;100504.09;5064156;28;20045;-74
2022/08/14 09:30:33;;;;;;;15.13;8.50;;;;;;;29.72;50.90;100489.19;5068575;28;20060;-73
2022/08/14 09:33:03;;;;;;;15.98;9.52;;;;;;;29.81;50.06;100491.69;5070317;28;20098;-72
2022/08/14 09:36:09;;;;;;;14.43;8.00;;;;;;;29.85;48.76;100497.09;5067556;28;20505;-73
2022/08/14 09:38:46;;;;;;;16.92;9.38;;;;;;;29.90;49.19;100491.34;5055785;28;20339;-73
2022/08/14 09:41:37;;;;;;;19.25;9.27;;;;;;;29.94;48.41;100500.38;5049596;28;20177;-73
2022/08/14 09:45:11;;;;;;;14.13;9.02;;;;;;;30.09;47.76;100491.38;5042603;28;20523;-71
2022/08/14 09:47:50;;;;;;;16.42;10.48;;;;;;;30.16;47.82;100482.22;5031641;28;20050;-72
2022/08/14 09:50:31;;;;;;;16.52;10.55;;;;;;;30.22;48.49;100480.06;5051125;28;20059;-72
2022/08/14 09:53:04;;;;;;;15.15;9.75;;;;;;;30.36;47.19;100478.84;5044826;28;20071;-72
2022/08/14 09:55:43;;;;;;;15.25;8.70;;;;;;;30.54;46.35;100478.06;5042069;28;20448;-71
2022/08/14 09:58:18;;;;;;;16.13;9.38;;;;;;;30.70;46.16;100474.19;5051050;28;20503;-72
2022/08/14 10:00:59;;;;;;;14.90;8.55;;;;;;;30.84;45.90;100473.72;5049390;28;20052;-72
2022/08/14 10:03:26;;;;;;;12.98;7.55;;;;;;;31.03;45.88;100473.69;5045279;28;20847;-73
2022/08/14 10:06:05;;;;;;;12.57;7.93;;;;;;;31.15;43.60;100461.50;5046261;28;20056;-73
2022/08/14 10:08:46;;;;;;;14.05;9.18;;;;;;;31.31;44.30;100462.56;5050798;28;20665;-73
2022/08/14 10:11:18;;;;;;;14.63;8.85;;;;;;;31.32;44.24;100459.16;5044407;28;20908;-73
2022/08/14 10:13:53;;;;;;;16.17;9.05;;;;;;;31.44;43.75;100454.00;5048750;28;20047;-73
2022/08/14 10:16:28;;;;;;;14.10;8.38;;;;;;;31.48;42.53;100455.25;5050006;28;20110;-72
2022/08/14 10:19:08;;;;;;;15.32;8.75;;;;;;;31.49;43.02;100442.47;5047920;28;20063;-72
2022/08/14 10:21:38;;;;;;;15.43;7.90;;;;;;;31.58;42.86;100432.69;5049632;28;20083;-73
2022/08/14 10:24:38;;;;;;;12.68;7.70;;;;;;;31.77;42.80;100428.41;5048587;28;20060;-73
2022/08/14 10:27:22;;;;;;;13.93;7.50;;;;;;;31.76;40.50;100418.28;5044323;28;20091;-72
2022/08/14 10:29:51;;;;;;;13.13;7.22;;;;;;;31.87;41.44;100420.94;5042436;28;20152;-73
2022/08/14 10:32:18;;;;;;;12.85;7.60;;;;;;;31.88;40.83;100413.91;5040144;28;20048;-72
2022/08/14 10:35:09;;;;;;;12.60;7.68;;;;;;;31.85;40.28;100414.22;5046185;28;20058;-73
2022/08/14 10:37:46;;;;;;;13.63;8.05;;;;;;;32.02;40.73;100408.91;5049093;28;20124;-73
2022/08/14 10:40:24;;;;;;;12.90;8.00;;;;;;;32.13;40.61;100402.97;5049498;28;20583;-72
2022/08/14 10:43:25;;;;;;;13.93;8.00;;;;;;;32.19;39.58;100403.59;5050070;28;20106;-71
2022/08/14 10:46:00;;;;;;;14.35;7.97;;;;;;;32.28;39.59;100408.06;5049521;28;20488;-72
2022/08/14 10:49:01;;;;;;;12.38;8.30;;;;;;;32.40;39.71;100415.13;5039381;28;20122;-73
2022/08/14 10:51:31;;;;;;;14.75;7.40;;;;;;;32.33;38.86;100404.34;5046242;28;20052;-73
2022/08/14 10:54:09;;;;;;;12.48;7.25;;;;;;;32.39;38.96;100397.16;5044718;28;20044;-72
2022/08/14 10:57:11;;;;;;;16.67;8.15;;;;;;;32.46;38.00;100402.19;5044439;28;20048;-73
2022/08/14 10:59:54;;;;;;;12.10;7.65;;;;;;;32.64;38.75;100407.00;5049662;28;20055;-72
2022/08/14 11:02:29;;;;;;;14.05;7.97;;;;;;;32.83;37.52;100409.66;5040787;28;20044;-72
2022/08/14 11:05:18;;;;;;;14.68;8.48;;;;;;;32.84;38.05;100397.66;5048957;28;20805;-71
2022/08/14 11:07:54;;;;;;;12.75;8.05;;;;;;;33.05;37.59;100398.41;5050582;28;20231;-71
2022/08/14 11:10:25;;;;;;;15.45;7.78;;;;;;;33.14;37.30;100386.41;5049329;28;20064;-73
2022/08/14 11:12:56;;;;;;;15.43;7.70;;;;;;;33.19;36.66;100384.75;5047129;28;20048;-73
2022/08/14 11:15:26;;;;;;;13.55;6.80;;;;;;;33.21;36.58;100377.13;5051107;28;20053;-73
2022/08/14 11:17:54;;;;;;;12.45;7.65;;;;;;;33.11;37.07;100370.38;5050174;28;20048;-73
2022/08/14 11:20:29;;;;;;;17.80;7.88;;;;;;;33.25;36.85;100368.94;5052683;28;20096;-72
2022/08/14 11:22:59;;;;;;;12.73;7.38;;;;;;;33.43;36.60;100373.66;5049679;28;20053;-73
2022/08/14 11:25:30;;;;;;;11.05;7.22;;;;;;;33.52;35.16;100361.69;5047003;28;20054;-73
2022/08/14 11:28:10;;;;;;;11.60;6.80;;;;;;;33.69;35.48;100361.19;5046359;28;20053;-72
2022/08/14 11:30:47;;;;;;;10.10;6.55;;;;;;;33.72;34.64;100362.94;5049773;28;20056;-73
2022/08/14 11:33:27;;;;;;;13.00;7.13;;;;;;;33.70;34.89;100363.50;5048096;28;20052;-73
2022/08/14 11:35:59;;;;;;;10.90;6.38;;;;;;;33.70;34.76;100366.38;5050271;28;20594;-72
2022/08/14 11:38:34;;;;;;;10.90;6.72;;;;;;;33.74;33.60;100358.16;5039181;28;20501;-72
2022/08/14 11:41:04;;;;;;;13.10;7.40;;;;;;;33.91;34.62;100343.34;5041390;28;20063;-72
2022/08/14 11:43:43;;;;;;;11.68;6.75;;;;;;;34.06;33.86;100341.28;5036321;28;20072;-73
2022/08/14 11:46:22;;;;;;;12.10;6.90;;;;;;;34.20;33.97;100331.19;5047554;28;20061;-72
2022/08/14 11:49:03;;;;;;;12.27;6.72;;;;;;;34.32;33.95;100331.59;5048998;28;20119;-73
2022/08/14 11:51:33;;;;;;;13.50;7.10;;;;;;;34.55;33.68;100334.50;5045956;28;20059;-73
2022/08/14 11:54:20;;;;;;;11.88;6.80;;;;;;;34.67;33.48;100338.53;5048880;28;20114;-72
2022/08/14 11:57:01;;;;;;;11.48;6.88;;;;;;;34.64;33.09;100326.09;5047958;28;20044;-72
2022/08/14 11:59:32;;;;;;;11.65;6.97;;;;;;;34.67;32.93;100327.81;5051160;28;20057;-73
2022/08/14 12:02:13;;;;;;;11.45;6.32;;;;;;;34.83;32.58;100334.31;5049814;28;20056;-73
2022/08/14 12:05:00;;;;;;;10.88;5.45;;;;;;;34.56;32.47;100327.41;5050709;28;20056;-76
2022/08/14 12:07:29;;;;;;;12.05;6.82;;;;;;;34.37;32.92;100327.78;5047864;28;20052;-75